sensor_id;sensor_type;location;lat;lon;timestamp;P1;durP1;ratioP1;P2;durP2;ratioP2
56271;SDS011;42177;48.914;18.160;2022-10-31T00:04:59;20.3;;;10.3;;
56271;SDS011;42177;48.914;18.160;2022-10-31T00:09:59;25;;;9.7;;
56271;SDS011;42177;48.914;18.160;2022-10-31T00:14:59;25;;;9.7;;
56271;SDS011;42177;48.914;18.160;2022-10-31T00:19:59;52;;;10.2;;
56271;SDS011;42177;48.914;18.160;2022-10-31T00:24:59;52;;;10.2;;
56271;SDS011;42177;48.914;18.160;2022-10-31T00:29:59;54.8;;;11.4;;
56271;SDS011;42177;48.914;18.160;2022-10-31T00:34:59;54.8;;;11.4;;
56271;SDS011;42177;48.914;18.160;2022-10-31T00:39:59;61.2;;;10;;
56271;SDS011;42177;48.914;18.160;2022-10-31T00:44:59;61.2;;;10;;
56271;SDS011;42177;48.914;18.160;2022-10-31T00:49:59;42.6;;;10.9;;
56271;SDS011;42177;48.914;18.160;2022-10-31T00:54:59;42.6;;;10.9;;
56271;SDS011;42177;48.914;18.160;2022-10-31T00:59:59;12.5;;;8;;
56271;SDS011;42177;48.914;18.160;2022-10-31T01:04:59;12.5;;;8;;
56271;SDS011;42177;48.914;18.160;2022-10-31T01:09:59;18.7;;;8.1;;
56271;SDS011;42177;48.914;18.160;2022-10-31T01:14:59;18.7;;;8.1;;
56271;SDS011;42177;48.914;18.160;2022-10-31T01:19:59;8.3;;;7.4;;
56271;SDS011;42177;48.914;18.160;2022-10-31T01:24:59;8.3;;;7.4;;
56271;SDS011;42177;48.914;18.160;2022-10-31T01:29:59;48.9;;;9.3;;
56271;SDS011;42177;48.914;18.160;2022-10-31T01:34:59;48.9;;;9.3;;
56271;SDS011;42177;48.914;18.160;2022-10-31T01:39:59;45.9;;;8.7;;
56271;SDS011;42177;48.914;18.160;2022-10-31T01:45:00;45.9;;;8.7;;
56271;SDS011;42177;48.914;18.160;2022-10-31T01:50:00;71;;;9.4;;
56271;SDS011;42177;48.914;18.160;2022-10-31T01:55:00;71;;;9.4;;
56271;SDS011;42177;48.914;18.160;2022-10-31T02:00:00;41;;;7.8;;
56271;SDS011;42177;48.914;18.160;2022-10-31T02:05:00;41;;;7.8;;
56271;SDS011;42177;48.914;18.160;2022-10-31T02:10:00;9.5;;;6.1;;
56271;SDS011;42177;48.914;18.160;2022-10-31T02:15:00;9.5;;;6.1;;
56271;SDS011;42177;48.914;18.160;2022-10-31T02:20:01;18.5;;;6.2;;
56271;SDS011;42177;48.914;18.160;2022-10-31T02:25:03;18.5;;;6.2;;
56271;SDS011;42177;48.914;18.160;2022-10-31T02:30:04;14.5;;;8;;
56271;SDS011;42177;48.914;18.160;2022-10-31T02:35:02;14.5;;;8;;
56271;SDS011;42177;48.914;18.160;2022-10-31T02:40:02;19.2;;;8;;
56271;SDS011;42177;48.914;18.160;2022-10-31T02:45:00;19.2;;;8;;
56271;SDS011;42177;48.914;18.160;2022-10-31T02:50:00;44.9;;;9.2;;
56271;SDS011;42177;48.914;18.160;2022-10-31T02:55:08;44.9;;;9.2;;
56271;SDS011;42177;48.914;18.160;2022-10-31T03:00:00;18.9;;;7.4;;
56271;SDS011;42177;48.914;18.160;2022-10-31T03:05:06;18.9;;;7.4;;
56271;SDS011;42177;48.914;18.160;2022-10-31T03:10:03;29;;;7.5;;
56271;SDS011;42177;48.914;18.160;2022-10-31T03:15:01;29;;;7.5;;
56271;SDS011;42177;48.914;18.160;2022-10-31T03:20:00;34.2;;;8.6;;
56271;SDS011;42177;48.914;18.160;2022-10-31T03:25:00;34.2;;;8.6;;
56271;SDS011;42177;48.914;18.160;2022-10-31T03:30:00;19.7;;;7.8;;
56271;SDS011;42177;48.914;18.160;2022-10-31T03:35:00;19.7;;;7.8;;
56271;SDS011;42177;48.914;18.160;2022-10-31T03:39:59;18.3;;;7.1;;
56271;SDS011;42177;48.914;18.160;2022-10-31T03:45:02;18.3;;;7.1;;
56271;SDS011;42177;48.914;18.160;2022-10-31T03:49:59;21.9;;;7.9;;
56271;SDS011;42177;48.914;18.160;2022-10-31T03:55:02;21.9;;;7.9;;
56271;SDS011;42177;48.914;18.160;2022-10-31T04:00:02;10.4;;;7.1;;
56271;SDS011;42177;48.914;18.160;2022-10-31T04:04:59;10.4;;;7.1;;
56271;SDS011;42177;48.914;18.160;2022-10-31T04:10:00;35.7;;;8.4;;
56271;SDS011;42177;48.914;18.160;2022-10-31T04:15:00;35.7;;;8.4;;
56271;SDS011;42177;48.914;18.160;2022-10-31T04:19:59;21.8;;;7.4;;
56271;SDS011;42177;48.914;18.160;2022-10-31T04:24:59;21.8;;;7.4;;
56271;SDS011;42177;48.914;18.160;2022-10-31T04:29:59;14.3;;;6.5;;
56271;SDS011;42177;48.914;18.160;2022-10-31T04:34:59;14.3;;;6.5;;
56271;SDS011;42177;48.914;18.160;2022-10-31T04:39:59;39.9;;;8;;
56271;SDS011;42177;48.914;18.160;2022-10-31T04:44:59;39.9;;;8;;
56271;SDS011;42177;48.914;18.160;2022-10-31T04:50:00;68.1;;;9.8;;
56271;SDS011;42177;48.914;18.160;2022-10-31T04:54:59;68.1;;;9.8;;
56271;SDS011;42177;48.914;18.160;2022-10-31T04:59:59;23;;;8.1;;
56271;SDS011;42177;48.914;18.160;2022-10-31T05:04:59;23;;;8.1;;
56271;SDS011;42177;48.914;18.160;2022-10-31T05:09:59;20.1;;;6.7;;
56271;SDS011;42177;48.914;18.160;2022-10-31T05:15:00;20.1;;;6.7;;
56271;SDS011;42177;48.914;18.160;2022-10-31T05:19:59;30.5;;;7.3;;
56271;SDS011;42177;48.914;18.160;2022-10-31T05:24:59;30.5;;;7.3;;
56271;SDS011;42177;48.914;18.160;2022-10-31T05:29:59;8.2;;;6.3;;
56271;SDS011;42177;48.914;18.160;2022-10-31T05:35:00;8.2;;;6.3;;
56271;SDS011;42177;48.914;18.160;2022-10-31T05:39:59;115.7;;;10.5;;
56271;SDS011;42177;48.914;18.160;2022-10-31T05:45:00;115.7;;;10.5;;
56271;SDS011;42177;48.914;18.160;2022-10-31T05:49:59;10.7;;;6.6;;
56271;SDS011;42177;48.914;18.160;2022-10-31T05:55:00;10.7;;;6.6;;
56271;SDS011;42177;48.914;18.160;2022-10-31T05:59:59;18.3;;;8;;
56271;SDS011;42177;48.914;18.160;2022-10-31T06:05:00;18.3;;;8;;
56271;SDS011;42177;48.914;18.160;2022-10-31T06:09:59;9.9;;;6.4;;
56271;SDS011;42177;48.914;18.160;2022-10-31T06:15:00;9.9;;;6.4;;
56271;SDS011;42177;48.914;18.160;2022-10-31T06:20:00;37.4;;;8.6;;
56271;SDS011;42177;48.914;18.160;2022-10-31T06:24:59;37.4;;;8.6;;
56271;SDS011;42177;48.914;18.160;2022-10-31T06:29:59;36.7;;;7.5;;
56271;SDS011;42177;48.914;18.160;2022-10-31T06:35:00;36.7;;;7.5;;
56271;SDS011;42177;48.914;18.160;2022-10-31T06:39:59;30.2;;;7;;
56271;SDS011;42177;48.914;18.160;2022-10-31T06:44:59;30.2;;;7;;
56271;SDS011;42177;48.914;18.160;2022-10-31T06:49:59;10.5;;;6.3;;
56271;SDS011;42177;48.914;18.160;2022-10-31T06:54:59;10.5;;;6.3;;
56271;SDS011;42177;48.914;18.160;2022-10-31T06:59:59;105.3;;;10.5;;
56271;SDS011;42177;48.914;18.160;2022-10-31T07:04:59;105.3;;;10.5;;
56271;SDS011;42177;48.914;18.160;2022-10-31T07:10:00;69.7;;;9;;
56271;SDS011;42177;48.914;18.160;2022-10-31T07:14:59;69.7;;;9;;
56271;SDS011;42177;48.914;18.160;2022-10-31T07:19:59;8.5;;;5.4;;
56271;SDS011;42177;48.914;18.160;2022-10-31T07:25:00;8.5;;;5.4;;
56271;SDS011;42177;48.914;18.160;2022-10-31T07:29:59;6.6;;;5.4;;
56271;SDS011;42177;48.914;18.160;2022-10-31T07:34:59;6.6;;;5.4;;
56271;SDS011;42177;48.914;18.160;2022-10-31T07:39:59;23.1;;;7;;
56271;SDS011;42177;48.914;18.160;2022-10-31T07:44:59;23.1;;;7;;
56271;SDS011;42177;48.914;18.160;2022-10-31T07:50:00;45.1;;;8.2;;
56271;SDS011;42177;48.914;18.160;2022-10-31T07:55:00;45.1;;;8.2;;
56271;SDS011;42177;48.914;18.160;2022-10-31T07:59:59;26.6;;;6.8;;
56271;SDS011;42177;48.914;18.160;2022-10-31T08:04:59;26.6;;;6.8;;
56271;SDS011;42177;48.914;18.160;2022-10-31T08:10:00;7.1;;;5.1;;
56271;SDS011;42177;48.914;18.160;2022-10-31T08:14:59;7.1;;;5.1;;
56271;SDS011;42177;48.914;18.160;2022-10-31T08:19:59;7.7;;;5.7;;
56271;SDS011;42177;48.914;18.160;2022-10-31T08:25:00;7.7;;;5.7;;
56271;SDS011;42177;48.914;18.160;2022-10-31T08:30:00;7.5;;;5.6;;
56271;SDS011;42177;48.914;18.160;2022-10-31T08:34:59;7.5;;;5.6;;
56271;SDS011;42177;48.914;18.160;2022-10-31T08:39:59;9.4;;;7;;
56271;SDS011;42177;48.914;18.160;2022-10-31T08:44:59;9.4;;;7;;
56271;SDS011;42177;48.914;18.160;2022-10-31T08:50:00;9.5;;;7.6;;
56271;SDS011;42177;48.914;18.160;2022-10-31T08:55:00;9.5;;;7.6;;
56271;SDS011;42177;48.914;18.160;2022-10-31T08:59:59;12.9;;;8.2;;
56271;SDS011;42177;48.914;18.160;2022-10-31T09:04:59;12.9;;;8.2;;
56271;SDS011;42177;48.914;18.160;2022-10-31T09:10:00;10.6;;;7.4;;
56271;SDS011;42177;48.914;18.160;2022-10-31T09:15:00;10.6;;;7.4;;
56271;SDS011;42177;48.914;18.160;2022-10-31T09:20:00;15.8;;;8.9;;
56271;SDS011;42177;48.914;18.160;2022-10-31T09:25:00;15.8;;;8.9;;
56271;SDS011;42177;48.914;18.160;2022-10-31T09:30:00;11.3;;;7.5;;
56271;SDS011;42177;48.914;18.160;2022-10-31T09:35:00;11.3;;;7.5;;
56271;SDS011;42177;48.914;18.160;2022-10-31T09:39:59;11.6;;;7.4;;
56271;SDS011;42177;48.914;18.160;2022-10-31T09:45:01;11.6;;;7.4;;
56271;SDS011;42177;48.914;18.160;2022-10-31T09:50:04;9.9;;;6.3;;
56271;SDS011;42177;48.914;18.160;2022-10-31T09:55:01;9.9;;;6.3;;
56271;SDS011;42177;48.914;18.160;2022-10-31T09:59:59;9.8;;;6.4;;
56271;SDS011;42177;48.914;18.160;2022-10-31T10:05:00;9.8;;;6.4;;
56271;SDS011;42177;48.914;18.160;2022-10-31T10:10:00;9.3;;;7.8;;
56271;SDS011;42177;48.914;18.160;2022-10-31T10:15:04;9.3;;;7.8;;
56271;SDS011;42177;48.914;18.160;2022-10-31T10:20:03;9.8;;;7.5;;
56271;SDS011;42177;48.914;18.160;2022-10-31T10:25:02;9.8;;;7.5;;
56271;SDS011;42177;48.914;18.160;2022-10-31T10:30:01;12.5;;;9.6;;
56271;SDS011;42177;48.914;18.160;2022-10-31T10:35:13;12.5;;;9.6;;
56271;SDS011;42177;48.914;18.160;2022-10-31T10:40:01;12.8;;;9.8;;
56271;SDS011;42177;48.914;18.160;2022-10-31T10:45:00;12.8;;;9.8;;
56271;SDS011;42177;48.914;18.160;2022-10-31T10:50:00;11.7;;;8.6;;
56271;SDS011;42177;48.914;18.160;2022-10-31T10:55:02;11.7;;;8.6;;
56271;SDS011;42177;48.914;18.160;2022-10-31T11:00:00;10;;;7.1;;
56271;SDS011;42177;48.914;18.160;2022-10-31T11:05:00;10;;;7.1;;
56271;SDS011;42177;48.914;18.160;2022-10-31T11:10:03;8.6;;;6.6;;
56271;SDS011;42177;48.914;18.160;2022-10-31T11:15:00;8.6;;;6.6;;
56271;SDS011;42177;48.914;18.160;2022-10-31T11:20:00;7.4;;;6.6;;
56271;SDS011;42177;48.914;18.160;2022-10-31T11:25:00;7.4;;;6.6;;
56271;SDS011;42177;48.914;18.160;2022-10-31T11:30:04;6.9;;;5.9;;
56271;SDS011;42177;48.914;18.160;2022-10-31T11:35:00;6.9;;;5.9;;
56271;SDS011;42177;48.914;18.160;2022-10-31T11:40:00;6.1;;;5.4;;
56271;SDS011;42177;48.914;18.160;2022-10-31T11:45:00;6.1;;;5.4;;
56271;SDS011;42177;48.914;18.160;2022-10-31T11:50:00;8.5;;;6.2;;
56271;SDS011;42177;48.914;18.160;2022-10-31T11:55:01;8.5;;;6.2;;
56271;SDS011;42177;48.914;18.160;2022-10-31T12:00:00;7.3;;;6;;
56271;SDS011;42177;48.914;18.160;2022-10-31T12:05:00;7.3;;;6;;
56271;SDS011;42177;48.914;18.160;2022-10-31T12:10:00;7.5;;;6.2;;
56271;SDS011;42177;48.914;18.160;2022-10-31T12:15:03;7.5;;;6.2;;
56271;SDS011;42177;48.914;18.160;2022-10-31T12:20:01;7.7;;;6.5;;
56271;SDS011;42177;48.914;18.160;2022-10-31T12:25:04;7.7;;;6.5;;
56271;SDS011;42177;48.914;18.160;2022-10-31T12:30:17;8.4;;;6.7;;
56271;SDS011;42177;48.914;18.160;2022-10-31T12:35:08;8.4;;;6.7;;
56271;SDS011;42177;48.914;18.160;2022-10-31T12:40:03;10;;;7.3;;
56271;SDS011;42177;48.914;18.160;2022-10-31T12:45:03;10;;;7.3;;
56271;SDS011;42177;48.914;18.160;2022-10-31T12:50:01;6.8;;;5.3;;
56271;SDS011;42177;48.914;18.160;2022-10-31T12:55:03;6.8;;;5.3;;
56271;SDS011;42177;48.914;18.160;2022-10-31T13:00:01;8.1;;;6;;
56271;SDS011;42177;48.914;18.160;2022-10-31T13:05:02;8.1;;;6;;
56271;SDS011;42177;48.914;18.160;2022-10-31T13:10:01;9.4;;;6.7;;
56271;SDS011;42177;48.914;18.160;2022-10-31T13:15:01;9.4;;;6.7;;
56271;SDS011;42177;48.914;18.160;2022-10-31T13:20:05;9.2;;;7;;
56271;SDS011;42177;48.914;18.160;2022-10-31T13:25:02;9.2;;;7;;
56271;SDS011;42177;48.914;18.160;2022-10-31T13:30:01;10.2;;;8;;
56271;SDS011;42177;48.914;18.160;2022-10-31T13:35:00;10.2;;;8;;
56271;SDS011;42177;48.914;18.160;2022-10-31T13:40:04;8.9;;;8;;
56271;SDS011;42177;48.914;18.160;2022-10-31T13:45:06;8.9;;;8;;
56271;SDS011;42177;48.914;18.160;2022-10-31T13:50:03;9.9;;;8.1;;
56271;SDS011;42177;48.914;18.160;2022-10-31T13:55:00;9.9;;;8.1;;
56271;SDS011;42177;48.914;18.160;2022-10-31T14:00:00;9.4;;;8.4;;
56271;SDS011;42177;48.914;18.160;2022-10-31T14:05:00;9.4;;;8.4;;
56271;SDS011;42177;48.914;18.160;2022-10-31T14:10:02;9.3;;;8.3;;
56271;SDS011;42177;48.914;18.160;2022-10-31T14:15:01;9.3;;;8.3;;
56271;SDS011;42177;48.914;18.160;2022-10-31T14:20:01;11.1;;;9;;
56271;SDS011;42177;48.914;18.160;2022-10-31T14:25:00;11.1;;;9;;
56271;SDS011;42177;48.914;18.160;2022-10-31T14:30:07;11.6;;;9.7;;
56271;SDS011;42177;48.914;18.160;2022-10-31T14:35:00;11.6;;;9.7;;
56271;SDS011;42177;48.914;18.160;2022-10-31T14:40:04;15.2;;;11.6;;
56271;SDS011;42177;48.914;18.160;2022-10-31T14:45:05;15.2;;;11.6;;
56271;SDS011;42177;48.914;18.160;2022-10-31T14:50:04;13.7;;;11.1;;
56271;SDS011;42177;48.914;18.160;2022-10-31T14:55:00;13.7;;;11.1;;
56271;SDS011;42177;48.914;18.160;2022-10-31T15:00:00;17.4;;;13.1;;
56271;SDS011;42177;48.914;18.160;2022-10-31T15:05:00;17.4;;;13.1;;
56271;SDS011;42177;48.914;18.160;2022-10-31T15:10:00;19.8;;;14;;
56271;SDS011;42177;48.914;18.160;2022-10-31T15:15:10;19.8;;;14;;
56271;SDS011;42177;48.914;18.160;2022-10-31T15:20:00;20.9;;;13.9;;
56271;SDS011;42177;48.914;18.160;2022-10-31T15:25:00;20.9;;;13.9;;
56271;SDS011;42177;48.914;18.160;2022-10-31T15:30:00;28.4;;;15.2;;
56271;SDS011;42177;48.914;18.160;2022-10-31T15:35:00;28.4;;;15.2;;
56271;SDS011;42177;48.914;18.160;2022-10-31T15:40:06;19.5;;;13.9;;
56271;SDS011;42177;48.914;18.160;2022-10-31T15:45:00;19.5;;;13.9;;
56271;SDS011;42177;48.914;18.160;2022-10-31T15:50:00;17.2;;;13.9;;
56271;SDS011;42177;48.914;18.160;2022-10-31T15:55:00;17.2;;;13.9;;
56271;SDS011;42177;48.914;18.160;2022-10-31T16:00:00;17.2;;;13.1;;
56271;SDS011;42177;48.914;18.160;2022-10-31T16:05:00;17.2;;;13.1;;
56271;SDS011;42177;48.914;18.160;2022-10-31T16:10:00;19;;;14.7;;
56271;SDS011;42177;48.914;18.160;2022-10-31T16:15:00;19;;;14.7;;
56271;SDS011;42177;48.914;18.160;2022-10-31T16:20:00;18.1;;;14;;
56271;SDS011;42177;48.914;18.160;2022-10-31T16:25:01;18.1;;;14;;
56271;SDS011;42177;48.914;18.160;2022-10-31T16:30:00;17.6;;;12.9;;
56271;SDS011;42177;48.914;18.160;2022-10-31T16:35:00;17.6;;;12.9;;
56271;SDS011;42177;48.914;18.160;2022-10-31T16:40:00;17.5;;;12.2;;
56271;SDS011;42177;48.914;18.160;2022-10-31T16:45:00;17.5;;;12.2;;
56271;SDS011;42177;48.914;18.160;2022-10-31T16:50:00;15.5;;;11.8;;
56271;SDS011;42177;48.914;18.160;2022-10-31T16:55:00;15.5;;;11.8;;
56271;SDS011;42177;48.914;18.160;2022-10-31T17:00:00;15.4;;;11.8;;
56271;SDS011;42177;48.914;18.160;2022-10-31T17:05:00;15.4;;;11.8;;
56271;SDS011;42177;48.914;18.160;2022-10-31T17:10:00;15.3;;;12.5;;
56271;SDS011;42177;48.914;18.160;2022-10-31T17:15:00;15.3;;;12.5;;
56271;SDS011;42177;48.914;18.160;2022-10-31T17:20:00;14.3;;;11.5;;
56271;SDS011;42177;48.914;18.160;2022-10-31T17:25:00;14.3;;;11.5;;
56271;SDS011;42177;48.914;18.160;2022-10-31T17:30:00;14;;;11;;
56271;SDS011;42177;48.914;18.160;2022-10-31T17:35:00;14;;;11;;
56271;SDS011;42177;48.914;18.160;2022-10-31T17:40:00;13.6;;;11;;
56271;SDS011;42177;48.914;18.160;2022-10-31T17:45:00;13.6;;;11;;
56271;SDS011;42177;48.914;18.160;2022-10-31T17:50:00;15.4;;;11.6;;
56271;SDS011;42177;48.914;18.160;2022-10-31T17:55:00;15.4;;;11.6;;
56271;SDS011;42177;48.914;18.160;2022-10-31T18:00:00;12.9;;;10.6;;
56271;SDS011;42177;48.914;18.160;2022-10-31T18:05:00;12.9;;;10.6;;
56271;SDS011;42177;48.914;18.160;2022-10-31T18:10:00;12.8;;;10.3;;
56271;SDS011;42177;48.914;18.160;2022-10-31T18:15:01;12.8;;;10.3;;
56271;SDS011;42177;48.914;18.160;2022-10-31T18:20:00;12.2;;;10.1;;
56271;SDS011;42177;48.914;18.160;2022-10-31T18:25:00;12.2;;;10.1;;
56271;SDS011;42177;48.914;18.160;2022-10-31T18:30:00;12.8;;;10;;
56271;SDS011;42177;48.914;18.160;2022-10-31T18:35:00;12.8;;;10;;
56271;SDS011;42177;48.914;18.160;2022-10-31T18:40:00;10.4;;;8.9;;
56271;SDS011;42177;48.914;18.160;2022-10-31T18:45:00;10.4;;;8.9;;
56271;SDS011;42177;48.914;18.160;2022-10-31T18:50:00;13.1;;;10.7;;
56271;SDS011;42177;48.914;18.160;2022-10-31T18:55:00;13.1;;;10.7;;
56271;SDS011;42177;48.914;18.160;2022-10-31T19:00:00;11.4;;;9.5;;
56271;SDS011;42177;48.914;18.160;2022-10-31T19:05:00;11.4;;;9.5;;
56271;SDS011;42177;48.914;18.160;2022-10-31T19:10:00;10.2;;;8.7;;
56271;SDS011;42177;48.914;18.160;2022-10-31T19:15:00;10.2;;;8.7;;
56271;SDS011;42177;48.914;18.160;2022-10-31T19:20:00;14.8;;;10.8;;
56271;SDS011;42177;48.914;18.160;2022-10-31T19:25:00;14.8;;;10.8;;
56271;SDS011;42177;48.914;18.160;2022-10-31T19:30:00;10.2;;;9.1;;
56271;SDS011;42177;48.914;18.160;2022-10-31T19:35:00;10.2;;;9.1;;
56271;SDS011;42177;48.914;18.160;2022-10-31T19:40:00;9.2;;;8.2;;
56271;SDS011;42177;48.914;18.160;2022-10-31T19:45:00;9.2;;;8.2;;
56271;SDS011;42177;48.914;18.160;2022-10-31T19:50:00;7.8;;;7;;
56271;SDS011;42177;48.914;18.160;2022-10-31T19:55:00;7.8;;;7;;
56271;SDS011;42177;48.914;18.160;2022-10-31T20:00:00;8.4;;;6.3;;
56271;SDS011;42177;48.914;18.160;2022-10-31T20:05:00;8.4;;;6.3;;
56271;SDS011;42177;48.914;18.160;2022-10-31T20:10:00;9.6;;;7.4;;
56271;SDS011;42177;48.914;18.160;2022-10-31T20:15:00;9.6;;;7.4;;
56271;SDS011;42177;48.914;18.160;2022-10-31T20:20:00;7.8;;;6.6;;
56271;SDS011;42177;48.914;18.160;2022-10-31T20:25:00;7.8;;;6.6;;
56271;SDS011;42177;48.914;18.160;2022-10-31T20:30:00;8.5;;;6;;
56271;SDS011;42177;48.914;18.160;2022-10-31T20:35:00;8.5;;;6;;
56271;SDS011;42177;48.914;18.160;2022-10-31T20:40:00;7.7;;;6.8;;
56271;SDS011;42177;48.914;18.160;2022-10-31T20:45:00;7.7;;;6.8;;
56271;SDS011;42177;48.914;18.160;2022-10-31T20:50:00;9.2;;;7.2;;
56271;SDS011;42177;48.914;18.160;2022-10-31T20:55:00;9.2;;;7.2;;
56271;SDS011;42177;48.914;18.160;2022-10-31T21:00:00;8.8;;;6.7;;
56271;SDS011;42177;48.914;18.160;2022-10-31T21:05:00;8.8;;;6.7;;
56271;SDS011;42177;48.914;18.160;2022-10-31T21:10:00;8.3;;;6.6;;
56271;SDS011;42177;48.914;18.160;2022-10-31T21:15:00;8.3;;;6.6;;
56271;SDS011;42177;48.914;18.160;2022-10-31T21:20:00;7;;;6.2;;
56271;SDS011;42177;48.914;18.160;2022-10-31T21:25:00;7;;;6.2;;
56271;SDS011;42177;48.914;18.160;2022-10-31T21:30:00;7.6;;;6.3;;
56271;SDS011;42177;48.914;18.160;2022-10-31T21:35:00;7.6;;;6.3;;
56271;SDS011;42177;48.914;18.160;2022-10-31T21:40:00;7.8;;;6.4;;
56271;SDS011;42177;48.914;18.160;2022-10-31T21:45:00;7.8;;;6.4;;
56271;SDS011;42177;48.914;18.160;2022-10-31T21:50:00;10.1;;;6.6;;
56271;SDS011;42177;48.914;18.160;2022-10-31T21:55:00;10.1;;;6.6;;
56271;SDS011;42177;48.914;18.160;2022-10-31T22:00:00;9.2;;;6.8;;
56271;SDS011;42177;48.914;18.160;2022-10-31T22:05:00;9.2;;;6.8;;
56271;SDS011;42177;48.914;18.160;2022-10-31T22:10:00;8.6;;;6.7;;
56271;SDS011;42177;48.914;18.160;2022-10-31T22:15:00;8.6;;;6.7;;
56271;SDS011;42177;48.914;18.160;2022-10-31T22:20:00;7.7;;;6.5;;
56271;SDS011;42177;48.914;18.160;2022-10-31T22:25:00;7.7;;;6.5;;
56271;SDS011;42177;48.914;18.160;2022-10-31T22:30:00;9.9;;;7.6;;
56271;SDS011;42177;48.914;18.160;2022-10-31T22:35:00;9.9;;;7.6;;
56271;SDS011;42177;48.914;18.160;2022-10-31T22:40:00;9.1;;;7.9;;
56271;SDS011;42177;48.914;18.160;2022-10-31T22:45:00;9.1;;;7.9;;
56271;SDS011;42177;48.914;18.160;2022-10-31T22:50:00;10;;;7.5;;
56271;SDS011;42177;48.914;18.160;2022-10-31T22:55:00;10;;;7.5;;
56271;SDS011;42177;48.914;18.160;2022-10-31T23:00:00;9.2;;;7.9;;
56271;SDS011;42177;48.914;18.160;2022-10-31T23:05:00;9.2;;;7.9;;
56271;SDS011;42177;48.914;18.160;2022-10-31T23:10:00;9.4;;;7.8;;
56271;SDS011;42177;48.914;18.160;2022-10-31T23:15:00;9.4;;;7.8;;
56271;SDS011;42177;48.914;18.160;2022-10-31T23:20:00;10.5;;;9;;
56271;SDS011;42177;48.914;18.160;2022-10-31T23:25:00;10.5;;;9;;
56271;SDS011;42177;48.914;18.160;2022-10-31T23:30:00;16.5;;;10.1;;
56271;SDS011;42177;48.914;18.160;2022-10-31T23:35:00;16.5;;;10.1;;
56271;SDS011;42177;48.914;18.160;2022-10-31T23:40:00;13.6;;;10.4;;
56271;SDS011;42177;48.914;18.160;2022-10-31T23:45:00;13.6;;;10.4;;
56271;SDS011;42177;48.914;18.160;2022-10-31T23:50:00;14.1;;;10.5;;
56271;SDS011;42177;48.914;18.160;2022-10-31T23:55:00;14.1;;;10.5;;
